Willimantic, Connecticut
Current Conditions -  °F | °C
As of 6:52 PM on Friday 21 Nov 2014 (Local Time) from KIJD Reporting Station
Clear Clear  
Wind Chill: 20°   Ceiling: Unl
Heat Index: 29°   Visibility: 10mi
Dew Point:   Wind: 10mph
Humidity: 40%   Direction: 290°WNW
Pressure: 30.41"   Gusts: 20mph
Location:  41.71°N, 72.21°W
Report Text: KIJD 212352Z AUTO 29009G17KT 10SM CLR M02/M14 A3041 RMK AO2 SLP301 T10171139 10017 21017 51039
Loading
Personal Weather Stations






























Interactive Weather Map New forecast layout! Learn more

10-Day Weather Forecast

Advertisements
Track Severe Weather on mobile